createdAt,value
2023-05-05T00:03:27.187Z,100527.19
2023-05-05T00:08:28.986Z,100523.28
2023-05-05T00:13:30.612Z,100513.50
2023-05-05T00:18:33.774Z,100516.09
2023-05-05T00:23:35.436Z,100517.41
2023-05-05T00:28:37.016Z,100501.72
2023-05-05T00:33:38.741Z,100505.56
2023-05-05T00:38:41.614Z,100499.50
2023-05-05T00:43:43.225Z,100486.38
2023-05-05T00:48:45.544Z,100492.16
2023-05-05T00:53:50.595Z,100479.38
2023-05-05T00:58:52.286Z,100481.72
2023-05-05T01:03:54.003Z,100476.53
2023-05-05T01:09:12.193Z,100474.75
2023-05-05T01:14:20.459Z,100477.81
2023-05-05T01:19:40.507Z,100476.41
2023-05-05T01:25:00.512Z,100475.41
2023-05-05T01:30:03.874Z,100488.50
2023-05-05T01:35:15.088Z,100490.69
2023-05-05T01:40:23.793Z,100487.84
2023-05-05T01:45:27.180Z,100485.63
2023-05-05T01:50:29.069Z,100489.22
2023-05-05T01:55:32.429Z,100479.25
2023-05-05T02:00:34.583Z,100477.34
2023-05-05T02:05:39.066Z,100475.94
2023-05-05T02:10:40.867Z,100469.59
2023-05-05T02:15:44.010Z,100464.00
2023-05-05T02:20:46.793Z,100456.41
2023-05-05T02:25:55.498Z,100443.00
2023-05-05T02:30:58.422Z,100447.53
2023-05-05T02:36:22.116Z,100446.38
2023-05-05T02:41:29.661Z,100444.59
2023-05-05T02:46:33.774Z,100440.00
2023-05-05T02:51:35.579Z,100444.38
2023-05-05T02:56:50.172Z,100462.56
2023-05-05T03:02:07.689Z,100462.28
2023-05-05T03:07:14.418Z,100459.75
2023-05-05T03:12:22.624Z,100458.59
2023-05-05T03:17:37.209Z,100452.84
2023-05-05T03:22:39.392Z,100449.88
2023-05-05T03:27:45.942Z,100449.63
2023-05-05T03:32:50.559Z,100449.16
2023-05-05T03:37:52.550Z,100458.91
2023-05-05T03:42:54.235Z,100456.34
2023-05-05T03:47:56.208Z,100452.63
2023-05-05T03:52:58.053Z,100456.41
2023-05-05T03:58:00.073Z,100454.72
2023-05-05T04:03:01.966Z,100463.88
2023-05-05T04:08:04.911Z,100467.66
2023-05-05T04:13:07.331Z,100457.22
2023-05-05T04:18:09.417Z,100453.53
2023-05-05T04:23:11.166Z,100463.91
2023-05-05T04:28:13.495Z,100472.78
2023-05-05T04:33:15.172Z,100457.72
2023-05-05T04:38:17.278Z,100459.56
2023-05-05T04:43:19.836Z,100473.03
2023-05-05T04:48:21.996Z,100481.53
2023-05-05T04:53:23.732Z,100489.91
2023-05-05T04:58:25.653Z,100481.91
2023-05-05T05:03:27.422Z,100477.22
2023-05-05T05:08:29.090Z,100476.59
2023-05-05T05:13:30.810Z,100478.47
2023-05-05T05:18:32.411Z,100485.81
2023-05-05T05:23:34.347Z,100482.44
2023-05-05T05:28:36.327Z,100490.47
2023-05-05T05:33:37.953Z,100480.34
2023-05-05T05:38:40.319Z,100494.00
2023-05-05T05:43:42.376Z,100484.63
2023-05-05T05:48:44.154Z,100481.72
2023-05-05T05:53:45.918Z,100477.97
2023-05-05T05:58:48.869Z,100480.19
2023-05-05T06:03:51.104Z,100482.94
2023-05-05T06:08:53.062Z,100490.44
2023-05-05T06:13:55.096Z,100487.09
2023-05-05T06:18:56.955Z,100482.47
2023-05-05T06:23:58.600Z,100488.75
2023-05-05T06:29:01.148Z,100479.97
2023-05-05T06:34:02.934Z,100485.19
2023-05-05T06:39:04.531Z,100482.16
2023-05-05T06:44:06.085Z,100471.19
2023-05-05T06:49:07.690Z,100470.84
2023-05-05T06:54:09.286Z,100474.31
2023-05-05T06:59:11.260Z,100461.94
2023-05-05T07:04:12.992Z,100465.19
2023-05-05T07:09:16.891Z,100471.00
2023-05-05T07:14:18.748Z,100472.94
2023-05-05T07:19:20.315Z,100462.53
2023-05-05T07:24:21.975Z,100462.06
2023-05-05T07:29:23.524Z,100460.91
2023-05-05T07:34:25.505Z,100462.31
2023-05-05T07:39:27.099Z,100459.88
2023-05-05T07:44:28.676Z,100462.06
2023-05-05T07:49:30.285Z,100458.09
2023-05-05T07:54:32.076Z,100456.53
2023-05-05T07:59:34.567Z,100461.31
2023-05-05T08:04:36.227Z,100461.69
2023-05-05T08:09:38.186Z,100463.00
2023-05-05T08:14:42.387Z,100458.78
2023-05-05T08:19:43.972Z,100463.78
2023-05-05T08:24:46.198Z,100451.03
2023-05-05T08:29:47.833Z,100453.69
2023-05-05T08:34:49.439Z,100448.63
2023-05-05T08:39:51.009Z,100438.16
2023-05-05T08:44:53.084Z,100439.13
2023-05-05T08:49:55.697Z,100428.91
2023-05-05T08:55:08.709Z,100433.44
2023-05-05T09:00:11.227Z,100434.75
2023-05-05T09:05:12.874Z,100425.06
2023-05-05T09:10:14.541Z,100421.91
2023-05-05T09:15:16.326Z,100416.47
2023-05-05T09:20:17.933Z,100414.16
2023-05-05T09:25:19.518Z,100428.38
2023-05-05T09:30:24.958Z,100426.25
2023-05-05T09:35:26.839Z,100434.44
2023-05-05T09:40:45.287Z,100427.75
2023-05-05T09:45:48.771Z,100419.44
2023-05-05T09:50:50.385Z,100430.16
2023-05-05T09:55:59.870Z,100413.88
2023-05-05T10:01:01.529Z,100412.19
2023-05-05T10:06:04.621Z,100415.16
2023-05-05T10:11:07.015Z,100405.69
2023-05-05T10:16:09.699Z,100399.06
2023-05-05T10:21:12.453Z,100396.81
2023-05-05T10:26:15.178Z,100387.44
2023-05-05T10:31:48.050Z,100376.97
2023-05-05T10:36:49.786Z,100388.09
2023-05-05T10:41:51.477Z,100371.34
2023-05-05T10:46:53.085Z,100370.09
2023-05-05T10:52:13.431Z,100371.78
2023-05-05T10:57:16.808Z,100366.53
2023-05-05T11:02:18.386Z,100365.31
2023-05-05T11:07:23.838Z,100367.59
2023-05-05T11:12:25.696Z,100354.63
2023-05-05T11:17:46.602Z,100355.84
2023-05-05T11:23:03.480Z,100348.69
2023-05-05T11:28:11.093Z,100335.78
2023-05-05T11:33:29.096Z,100335.50
2023-05-05T11:38:36.324Z,100332.81
2023-05-05T11:43:38.353Z,100327.38
2023-05-05T11:48:49.379Z,100315.53
2023-05-05T11:53:51.071Z,100323.19
2023-05-05T11:59:09.186Z,100315.88
2023-05-05T12:04:17.209Z,100312.75
2023-05-05T12:09:20.293Z,100307.91
2023-05-05T12:14:22.594Z,100307.16
2023-05-05T12:19:24.402Z,100305.13
2023-05-05T12:24:26.053Z,100304.25
2023-05-05T12:29:29.094Z,100315.75
2023-05-05T12:34:31.736Z,100308.03
2023-05-05T12:39:39.127Z,100306.94
2023-05-05T12:44:41.477Z,100298.47
2023-05-05T12:49:50.943Z,100303.94
2023-05-05T12:54:56.898Z,100288.22
2023-05-05T12:59:58.532Z,100289.03
2023-05-05T13:05:00.158Z,100275.84
2023-05-05T13:10:11.122Z,100283.50
2023-05-05T13:15:13.062Z,100282.19
2023-05-05T13:20:15.039Z,100266.56
2023-05-05T13:25:16.659Z,100265.22
2023-05-05T13:30:18.273Z,100261.03
2023-05-05T13:35:19.866Z,100254.47
2023-05-05T13:40:22.270Z,100249.34
2023-05-05T13:45:24.858Z,100244.00
2023-05-05T13:50:26.475Z,100227.25
2023-05-05T13:55:29.135Z,100219.03
2023-05-05T14:00:30.931Z,100221.91
2023-05-05T14:05:33.913Z,100210.59
2023-05-05T14:10:36.266Z,100220.25
2023-05-05T14:15:38.394Z,100208.28
2023-05-05T14:20:39.988Z,100203.72
2023-05-05T14:25:41.635Z,100205.03
2023-05-05T14:30:43.291Z,100205.09
2023-05-05T14:35:44.874Z,100196.47
2023-05-05T14:40:46.443Z,100190.63
2023-05-05T14:45:48.095Z,100190.44
2023-05-05T14:50:49.944Z,100189.22
2023-05-05T14:55:51.681Z,100189.72
2023-05-05T15:00:54.509Z,100181.78
2023-05-05T15:05:56.383Z,100176.59
2023-05-05T15:10:58.069Z,100171.63
2023-05-05T15:15:59.678Z,100167.38
2023-05-05T15:21:01.279Z,100160.56
2023-05-05T15:26:02.931Z,100163.25
2023-05-05T15:31:05.954Z,100152.81
2023-05-05T15:36:07.922Z,100160.56
2023-05-05T15:41:09.529Z,100147.56
2023-05-05T15:46:11.074Z,100152.72
2023-05-05T15:51:12.826Z,100156.06
2023-05-05T15:56:14.392Z,100150.00
2023-05-05T16:01:16.540Z,100144.59
2023-05-05T16:06:18.122Z,100148.25
2023-05-05T16:11:22.324Z,100137.00
2023-05-05T16:16:24.068Z,100136.84
2023-05-05T16:21:25.862Z,100137.34
2023-05-05T16:26:27.403Z,100134.06
2023-05-05T16:31:29.080Z,100128.47
2023-05-05T16:36:31.611Z,100131.03
2023-05-05T16:41:33.254Z,100132.38
2023-05-05T16:46:39.969Z,100121.56
2023-05-05T16:51:41.649Z,100121.41
2023-05-05T16:56:43.220Z,100126.06
2023-05-05T17:01:44.897Z,100123.84
2023-05-05T17:06:46.467Z,100121.34
2023-05-05T17:11:48.037Z,100124.72
2023-05-05T17:16:49.989Z,100131.03
2023-05-05T17:21:51.595Z,100121.28
2023-05-05T17:26:53.218Z,100116.09
2023-05-05T17:31:55.071Z,100118.66
2023-05-05T17:36:57.052Z,100116.13
2023-05-05T17:41:58.680Z,100111.78
2023-05-05T17:47:00.423Z,100107.41
2023-05-05T17:52:02.091Z,100107.44
2023-05-05T17:57:04.164Z,100107.88
2023-05-05T18:02:05.737Z,100108.75
2023-05-05T18:07:07.686Z,100117.16
2023-05-05T18:12:09.313Z,100113.25
2023-05-05T18:17:10.991Z,100116.41
2023-05-05T18:22:13.596Z,100111.44
2023-05-05T18:27:15.550Z,100131.50
2023-05-05T18:32:17.149Z,100129.03
2023-05-05T18:37:18.737Z,100127.16
2023-05-05T18:42:20.306Z,100137.00
2023-05-05T18:47:22.056Z,100130.69
2023-05-05T18:52:23.641Z,100131.78
2023-05-05T18:57:25.918Z,100141.78
2023-05-05T19:02:27.523Z,100135.31
2023-05-05T19:07:35.542Z,100142.03
2023-05-05T19:12:37.697Z,100147.66
2023-05-05T19:17:39.353Z,100146.22
2023-05-05T19:22:41.038Z,100145.38
2023-05-05T19:27:42.698Z,100141.59
2023-05-05T19:32:45.240Z,100154.13
2023-05-05T19:37:46.842Z,100153.72
2023-05-05T19:42:48.440Z,100149.56
2023-05-05T19:47:50.080Z,100159.13
2023-05-05T19:52:51.707Z,100158.28
2023-05-05T19:57:53.408Z,100154.31
2023-05-05T20:02:55.123Z,100156.22
2023-05-05T20:07:56.949Z,100144.94
2023-05-05T20:12:58.759Z,100134.94
2023-05-05T20:18:00.608Z,100139.50
2023-05-05T20:23:02.311Z,100129.69
2023-05-05T20:28:03.998Z,100125.72
2023-05-05T20:33:05.670Z,100119.41
2023-05-05T20:38:07.373Z,100121.50
2023-05-05T20:43:08.977Z,100124.81
2023-05-05T20:48:11.484Z,100126.22
2023-05-05T20:53:16.054Z,100114.97
2023-05-05T20:58:17.752Z,100130.63
2023-05-05T21:03:19.343Z,100118.69
2023-05-05T21:08:21.206Z,100131.03
2023-05-05T21:13:22.938Z,100120.19
2023-05-05T21:18:25.747Z,100113.91
2023-05-05T21:23:27.431Z,100107.88
2023-05-05T21:28:29.000Z,100098.91
2023-05-05T21:33:30.732Z,100090.75
2023-05-05T21:38:32.388Z,100086.97
2023-05-05T21:43:34.097Z,100095.09
2023-05-05T21:48:38.590Z,100086.72
2023-05-05T21:53:40.681Z,100079.66
2023-05-05T21:58:42.230Z,100079.19
2023-05-05T22:03:43.970Z,100079.06
2023-05-05T22:08:46.315Z,100079.31
2023-05-05T22:13:48.056Z,100084.06
2023-05-05T22:18:49.752Z,100094.56
2023-05-05T22:23:51.324Z,100088.09
2023-05-05T22:28:52.876Z,100112.41
2023-05-05T22:33:54.528Z,100108.25
2023-05-05T22:38:56.361Z,100108.19
2023-05-05T22:43:57.992Z,100113.13
2023-05-05T22:48:59.805Z,100135.53
2023-05-05T22:54:02.643Z,100144.78
2023-05-05T22:59:05.419Z,100153.25
2023-05-05T23:04:07.481Z,100174.28
2023-05-05T23:09:09.362Z,100179.28
2023-05-05T23:14:11.048Z,100176.69
2023-05-05T23:19:13.651Z,100166.84
2023-05-05T23:24:15.307Z,100169.16
2023-05-05T23:29:16.897Z,100160.28
2023-05-05T23:34:18.480Z,100161.88
2023-05-05T23:39:20.038Z,100160.97
2023-05-05T23:44:21.601Z,100152.84
2023-05-05T23:49:24.896Z,100154.38
2023-05-05T23:54:26.514Z,100149.22
2023-05-05T23:59:28.069Z,100148.00
